createdAt,value
2023-01-02T00:02:03.647Z,7.79
2023-01-02T00:05:05.650Z,7.91
2023-01-02T00:08:07.247Z,8.15
2023-01-02T00:11:08.807Z,8.18
2023-01-02T00:14:10.416Z,8.12
2023-01-02T00:17:11.961Z,8.12
2023-01-02T00:20:13.559Z,8.06
2023-01-02T00:23:15.075Z,8.09
2023-01-02T00:26:16.603Z,8.10
2023-01-02T00:29:18.205Z,8.07
2023-01-02T00:32:19.724Z,8.37
2023-01-02T00:35:21.337Z,8.38
2023-01-02T00:38:22.939Z,8.36
2023-01-02T00:41:24.626Z,8.29
2023-01-02T00:44:26.167Z,8.30
2023-01-02T00:47:27.721Z,8.34
2023-01-02T00:50:29.283Z,8.44
2023-01-02T00:53:30.840Z,8.47
2023-01-02T00:56:32.416Z,8.43
2023-01-02T00:59:34.187Z,8.49
2023-01-02T01:02:35.788Z,8.46
2023-01-02T01:05:38.618Z,8.39
2023-01-02T01:08:40.302Z,8.36
2023-01-02T01:11:41.922Z,8.43
2023-01-02T01:14:44.049Z,8.37
2023-01-02T01:17:45.640Z,8.35
2023-01-02T01:20:47.217Z,8.34
2023-01-02T01:23:52.712Z,8.36
2023-01-02T01:26:54.344Z,8.35
2023-01-02T01:29:55.844Z,8.43
2023-01-02T01:32:57.405Z,8.47
2023-01-02T01:36:07.098Z,8.66
2023-01-02T01:39:08.649Z,8.71
2023-01-02T01:42:15.428Z,8.68
2023-01-02T01:45:17.109Z,8.62
2023-01-02T01:48:25.493Z,8.69
2023-01-02T01:51:27.111Z,8.75
2023-01-02T01:54:31.744Z,8.73
2023-01-02T01:57:33.702Z,8.78
2023-01-02T02:00:35.279Z,8.80
2023-01-02T02:03:36.861Z,8.91
2023-01-02T02:06:38.382Z,8.91
2023-01-02T02:09:45.558Z,8.93
2023-01-02T02:12:47.084Z,9.07
2023-01-02T02:16:19.212Z,9.14
2023-01-02T02:19:27.029Z,9.18
2023-01-02T02:22:31.987Z,9.18
2023-01-02T02:25:43.558Z,9.17
2023-01-02T02:29:04.611Z,9.23
2023-01-02T02:32:24.910Z,9.16
2023-01-02T02:35:52.018Z,9.13
2023-01-02T02:39:08.602Z,9.16
2023-01-02T02:42:18.776Z,9.14
2023-01-02T02:45:32.620Z,9.14
2023-01-02T02:48:46.172Z,9.19
2023-01-02T02:52:00.703Z,9.41
2023-01-02T02:55:17.156Z,9.25
2023-01-02T02:58:19.095Z,9.23
2023-01-02T03:01:23.397Z,9.38
2023-01-02T03:04:27.057Z,9.46
2023-01-02T03:07:39.448Z,9.52
2023-01-02T03:10:47.262Z,9.58
2023-01-02T03:14:07.992Z,9.59
2023-01-02T03:17:19.998Z,9.51
2023-01-02T03:20:23.112Z,9.43
2023-01-02T03:23:24.719Z,9.36
2023-01-02T03:26:27.983Z,9.40
2023-01-02T03:29:38.643Z,9.28
2023-01-02T03:33:00.783Z,9.18
2023-01-02T03:36:08.679Z,9.25
2023-01-02T03:39:12.763Z,9.32
2023-01-02T03:42:16.918Z,9.26
2023-01-02T03:45:22.645Z,9.32
2023-01-02T03:48:52.076Z,9.32
2023-01-02T03:51:54.087Z,9.16
2023-01-02T03:54:55.633Z,9.29
2023-01-02T03:58:08.332Z,9.20
2023-01-02T04:01:13.095Z,9.30
2023-01-02T04:04:19.069Z,9.26
2023-01-02T04:07:26.355Z,9.17
2023-01-02T04:10:28.654Z,9.23
2023-01-02T04:13:30.711Z,9.11
2023-01-02T04:16:33.830Z,9.16
2023-01-02T04:19:37.982Z,9.18
2023-01-02T04:22:42.648Z,9.10
2023-01-02T04:25:52.551Z,9.16
2023-01-02T04:28:54.187Z,9.14
2023-01-02T04:32:00.848Z,9.11
2023-01-02T04:35:05.523Z,9.06
2023-01-02T04:38:08.698Z,9.01
2023-01-02T04:41:10.475Z,9.16
2023-01-02T04:44:12.032Z,9.17
2023-01-02T04:47:19.840Z,9.12
2023-01-02T04:50:23.293Z,9.14
2023-01-02T04:53:24.851Z,9.14
2023-01-02T04:56:26.393Z,9.02
2023-01-02T04:59:28.092Z,8.89
2023-01-02T05:02:29.808Z,8.90
2023-01-02T05:05:31.845Z,8.86
2023-01-02T05:08:33.662Z,8.83
2023-01-02T05:11:35.314Z,8.68
2023-01-02T05:14:36.919Z,8.67
2023-01-02T05:17:39.485Z,8.70
2023-01-02T05:20:41.003Z,8.71
2023-01-02T05:23:51.326Z,8.72
2023-01-02T05:26:53.807Z,8.66
2023-01-02T05:29:55.363Z,8.68
2023-01-02T05:32:56.973Z,8.55
2023-01-02T05:35:58.516Z,8.47
2023-01-02T05:39:01.127Z,8.44
2023-01-02T05:42:02.708Z,8.51
2023-01-02T05:45:04.876Z,8.47
2023-01-02T05:48:06.515Z,8.60
2023-01-02T05:51:09.159Z,8.53
2023-01-02T05:54:10.739Z,8.50
2023-01-02T05:57:12.272Z,8.64
2023-01-02T06:00:14.386Z,8.61
2023-01-02T06:03:15.997Z,8.53
2023-01-02T06:06:18.385Z,8.46
2023-01-02T06:09:19.977Z,8.44
2023-01-02T06:12:21.588Z,8.37
2023-01-02T06:15:23.200Z,8.39
2023-01-02T06:18:24.895Z,8.37
2023-01-02T06:21:26.421Z,8.36
2023-01-02T06:24:27.976Z,8.47
2023-01-02T06:27:31.880Z,8.52
2023-01-02T06:30:33.421Z,8.49
2023-01-02T06:33:35.098Z,8.53
2023-01-02T06:36:36.684Z,8.60
2023-01-02T06:39:38.273Z,8.50
2023-01-02T06:42:39.861Z,8.39
2023-01-02T06:45:41.412Z,8.39
2023-01-02T06:48:43.129Z,8.48
2023-01-02T06:51:44.619Z,8.48
2023-01-02T06:54:46.160Z,8.46
2023-01-02T06:57:47.689Z,8.48
2023-01-02T07:00:49.348Z,8.51
2023-01-02T07:03:50.931Z,8.56
2023-01-02T07:06:52.507Z,8.68
2023-01-02T07:09:54.096Z,8.78
2023-01-02T07:12:55.621Z,8.90
2023-01-02T07:15:57.146Z,8.91
2023-01-02T07:18:58.669Z,9.07
2023-01-02T07:22:00.177Z,9.11
2023-01-02T07:25:02.150Z,9.13
2023-01-02T07:28:03.751Z,9.05
2023-01-02T07:31:07.109Z,9.18
2023-01-02T07:34:08.643Z,9.20
2023-01-02T07:37:10.250Z,9.16
2023-01-02T07:40:12.229Z,9.10
2023-01-02T07:43:13.775Z,9.18
2023-01-02T07:46:16.435Z,9.32
2023-01-02T07:49:18.026Z,9.39
2023-01-02T07:52:19.549Z,9.51
2023-01-02T07:55:21.128Z,9.50
2023-01-02T07:58:22.932Z,9.52
2023-01-02T08:01:24.700Z,9.52
2023-01-02T08:04:26.457Z,9.62
2023-01-02T08:07:28.047Z,9.63
2023-01-02T08:10:29.552Z,9.75
2023-01-02T08:13:31.081Z,9.84
2023-01-02T08:16:32.593Z,9.68
2023-01-02T08:19:34.139Z,9.72
2023-01-02T08:22:35.687Z,9.74
2023-01-02T08:25:37.204Z,9.83
2023-01-02T08:28:39.333Z,10.04
2023-01-02T08:31:43.821Z,10.01
2023-01-02T08:34:45.751Z,9.97
2023-01-02T08:37:50.608Z,10.00
2023-01-02T08:40:52.453Z,10.00
2023-01-02T08:43:53.955Z,10.13
2023-01-02T08:46:55.491Z,10.20
2023-01-02T08:49:57.027Z,10.23
2023-01-02T08:52:58.563Z,10.29
2023-01-02T08:56:19.159Z,10.40
2023-01-02T08:59:23.156Z,10.52
2023-01-02T09:02:24.954Z,10.59
2023-01-02T09:05:29.126Z,10.58
2023-01-02T09:08:31.499Z,10.49
2023-01-02T09:11:37.454Z,10.47
2023-01-02T09:14:39.068Z,10.39
2023-01-02T09:17:40.620Z,10.30
2023-01-02T09:20:42.125Z,10.34
2023-01-02T09:23:43.695Z,10.40
2023-01-02T09:26:45.256Z,10.35
2023-01-02T09:29:46.814Z,10.45
2023-01-02T09:32:50.648Z,10.47
2023-01-02T09:35:52.189Z,10.75
2023-01-02T09:38:54.481Z,11.01
2023-01-02T09:41:57.907Z,11.47
2023-01-02T09:45:06.531Z,12.43
2023-01-02T09:48:15.396Z,13.11
2023-01-02T09:51:16.898Z,14.04
2023-01-02T09:54:31.251Z,13.61
2023-01-02T09:57:43.351Z,14.28
2023-01-02T10:00:44.910Z,14.71
2023-01-02T10:03:52.842Z,15.06
2023-01-02T10:07:15.681Z,15.02
2023-01-02T10:10:24.736Z,15.56
2023-01-02T10:14:17.502Z,16.35
2023-01-02T10:17:06.296Z,16.38
2023-01-02T10:20:24.039Z,15.95
2023-01-02T10:23:48.314Z,16.98
2023-01-02T10:26:52.576Z,16.62
2023-01-02T10:30:28.087Z,16.47
2023-01-02T10:33:36.629Z,16.35
2023-01-02T10:36:42.030Z,16.52
2023-01-02T10:39:44.129Z,17.04
2023-01-02T10:42:45.631Z,16.76
2023-01-02T10:45:47.180Z,16.68
2023-01-02T10:48:52.203Z,17.19
2023-01-02T10:52:02.877Z,17.70
2023-01-02T10:55:04.663Z,17.55
2023-01-02T10:58:06.841Z,17.12
2023-01-02T11:01:20.942Z,16.87
2023-01-02T11:04:27.136Z,16.41
2023-01-02T11:07:28.949Z,15.54
2023-01-02T11:10:32.693Z,15.33
2023-01-02T11:13:47.583Z,15.14
2023-01-02T11:16:53.566Z,14.98
2023-01-02T11:19:55.889Z,14.95
2023-01-02T11:22:58.968Z,14.85
2023-01-02T11:26:01.068Z,14.87
2023-01-02T11:29:13.560Z,14.78
2023-01-02T11:32:22.964Z,14.84
2023-01-02T11:35:39.461Z,14.86
2023-01-02T11:38:48.059Z,14.92
2023-01-02T11:42:08.164Z,14.93
2023-01-02T11:45:11.287Z,14.82
2023-01-02T11:48:15.708Z,14.85
2023-01-02T11:51:17.845Z,14.82
2023-01-02T11:54:25.695Z,14.80
2023-01-02T11:57:47.374Z,14.61
2023-01-02T12:00:50.682Z,14.59
2023-01-02T12:03:52.254Z,14.76
2023-01-02T12:06:59.679Z,14.81
2023-01-02T12:10:40.165Z,14.85
2023-01-02T12:14:00.419Z,14.84
2023-01-02T12:17:31.654Z,14.89
2023-01-02T12:21:05.496Z,14.78
2023-01-02T12:24:24.619Z,14.83
2023-01-02T12:27:47.203Z,14.78
2023-01-02T12:30:57.115Z,14.68
2023-01-02T12:34:26.491Z,14.63
2023-01-02T12:37:47.872Z,14.59
2023-01-02T12:40:52.523Z,14.50
2023-01-02T12:44:27.246Z,14.52
2023-01-02T12:47:42.939Z,14.45
2023-01-02T12:50:53.973Z,14.29
2023-01-02T12:54:18.875Z,14.21
2023-01-02T12:57:33.270Z,14.15
2023-01-02T13:00:42.308Z,14.12
2023-01-02T13:04:19.431Z,14.05
2023-01-02T13:07:57.510Z,14.02
2023-01-02T13:10:59.876Z,13.80
2023-01-02T13:14:01.687Z,13.68
2023-01-02T13:17:33.236Z,13.65
2023-01-02T13:20:38.328Z,13.36
2023-01-02T13:23:43.373Z,13.30
2023-01-02T13:26:44.981Z,13.09
2023-01-02T13:29:46.664Z,12.92
2023-01-02T13:32:48.224Z,12.65
2023-01-02T13:35:49.955Z,12.43
2023-01-02T13:39:03.765Z,12.03
2023-01-02T13:42:23.910Z,11.89
2023-01-02T13:45:31.225Z,11.66
2023-01-02T13:48:39.500Z,11.52
2023-01-02T13:51:41.238Z,11.36
2023-01-02T13:55:03.813Z,11.16
2023-01-02T13:58:15.799Z,10.82
2023-01-02T14:01:27.026Z,10.70
2023-01-02T14:04:33.747Z,10.52
2023-01-02T14:07:42.470Z,10.45
2023-01-02T14:10:44.022Z,10.36
2023-01-02T14:13:47.507Z,10.22
2023-01-02T14:17:27.335Z,10.06
2023-01-02T14:20:42.631Z,9.99
2023-01-02T14:24:17.038Z,9.86
2023-01-02T14:27:16.639Z,9.82
2023-01-02T14:30:23.724Z,9.73
2023-01-02T14:33:31.777Z,9.61
2023-01-02T14:36:40.121Z,9.52
2023-01-02T14:39:41.732Z,9.54
2023-01-02T14:43:01.923Z,9.44
2023-01-02T14:46:13.257Z,9.45
2023-01-02T14:49:26.325Z,9.39
2023-01-02T14:52:38.952Z,9.24
2023-01-02T14:55:42.331Z,9.25
2023-01-02T14:58:45.268Z,9.19
2023-01-02T15:01:49.960Z,9.13
2023-01-02T15:04:54.316Z,9.14
2023-01-02T15:07:56.010Z,9.06
2023-01-02T15:11:20.804Z,9.07
2023-01-02T15:14:24.141Z,8.93
2023-01-02T15:17:25.887Z,8.95
2023-01-02T15:20:27.653Z,8.89
2023-01-02T15:23:29.219Z,8.88
2023-01-02T15:26:34.303Z,8.87
2023-01-02T15:29:36.291Z,8.83
2023-01-02T15:32:37.812Z,8.83
2023-01-02T15:35:39.370Z,8.82
2023-01-02T15:38:41.024Z,8.81
2023-01-02T15:41:54.632Z,8.82
2023-01-02T15:45:12.025Z,8.84
2023-01-02T15:48:14.001Z,8.84
2023-01-02T15:51:16.480Z,8.81
2023-01-02T15:54:18.789Z,8.81
2023-01-02T15:57:20.473Z,8.80
2023-01-02T16:00:36.376Z,8.82
2023-01-02T16:04:03.903Z,8.86
2023-01-02T16:07:11.920Z,8.80
2023-01-02T16:10:21.623Z,8.82
2023-01-02T16:13:41.692Z,8.85
2023-01-02T16:16:58.472Z,8.87
2023-01-02T16:20:01.619Z,8.83
2023-01-02T16:23:05.046Z,8.83
2023-01-02T16:26:06.720Z,8.85
2023-01-02T16:29:13.639Z,8.81
2023-01-02T16:32:34.175Z,8.80
2023-01-02T16:35:37.049Z,8.76
2023-01-02T16:38:52.593Z,8.73
2023-01-02T16:42:16.392Z,8.66
2023-01-02T16:45:19.537Z,8.69
2023-01-02T16:48:22.154Z,8.69
2023-01-02T16:51:23.742Z,8.67
2023-01-02T16:54:25.273Z,8.69
2023-01-02T16:57:26.843Z,8.69
2023-01-02T17:00:28.465Z,8.78
2023-01-02T17:03:30.095Z,8.72
2023-01-02T17:06:31.770Z,8.69
2023-01-02T17:09:33.401Z,8.52
2023-01-02T17:12:39.718Z,8.34
2023-01-02T17:15:44.756Z,8.10
2023-01-02T17:18:46.244Z,8.03
2023-01-02T17:21:49.058Z,8.02
2023-01-02T17:24:50.627Z,7.92
2023-01-02T17:27:53.476Z,7.90
2023-01-02T17:30:54.988Z,7.79
2023-01-02T17:33:56.586Z,7.73
2023-01-02T17:36:58.260Z,7.67
2023-01-02T17:39:59.791Z,7.64
2023-01-02T17:43:01.304Z,7.65
2023-01-02T17:46:38.726Z,7.66
2023-01-02T17:49:30.291Z,7.65
2023-01-02T17:52:31.849Z,7.61
2023-01-02T17:55:33.365Z,7.62
2023-01-02T17:58:34.885Z,7.62
2023-01-02T18:01:36.541Z,7.64
2023-01-02T18:04:39.491Z,7.63
2023-01-02T18:07:40.988Z,7.62
2023-01-02T18:10:42.503Z,7.61
2023-01-02T18:13:49.645Z,7.61
2023-01-02T18:16:51.664Z,7.62
2023-01-02T18:19:53.473Z,7.61
2023-01-02T18:22:54.995Z,7.62
2023-01-02T18:25:56.546Z,7.60
2023-01-02T18:29:02.884Z,7.59
2023-01-02T18:32:14.994Z,7.55
2023-01-02T18:38:50.985Z,7.50
2023-01-02T18:41:54.387Z,7.50
2023-01-02T18:44:58.031Z,7.44
2023-01-02T18:47:59.557Z,7.42
2023-01-02T18:51:01.720Z,7.38
2023-01-02T18:54:03.262Z,7.38
2023-01-02T18:57:14.781Z,7.39
2023-01-02T19:00:28.408Z,7.37
2023-01-02T19:03:30.024Z,7.34
2023-01-02T19:06:35.369Z,7.33
2023-01-02T19:09:36.939Z,7.31
2023-01-02T19:13:07.126Z,7.31
2023-01-02T19:16:19.612Z,7.33
2023-01-02T19:19:24.027Z,7.41
2023-01-02T19:22:32.698Z,7.41
2023-01-02T19:25:34.578Z,7.41
2023-01-02T19:28:36.299Z,7.40
2023-01-02T19:31:46.609Z,7.36
2023-01-02T19:34:52.572Z,7.32
2023-01-02T19:37:54.278Z,7.34
2023-01-02T19:40:56.033Z,7.32
2023-01-02T19:43:57.972Z,7.31
2023-01-02T19:46:59.546Z,7.29
2023-01-02T19:50:01.379Z,7.28
2023-01-02T19:53:02.973Z,7.30
2023-01-02T19:56:04.820Z,7.31
2023-01-02T19:59:12.681Z,7.28
2023-01-02T20:02:16.069Z,7.20
2023-01-02T20:05:21.665Z,7.22
2023-01-02T20:08:23.924Z,7.21
2023-01-02T20:11:44.349Z,7.16
2023-01-02T20:14:46.216Z,7.14
2023-01-02T20:17:47.908Z,7.10
2023-01-02T20:20:49.553Z,7.08
2023-01-02T20:23:56.285Z,7.07
2023-01-02T20:27:00.307Z,7.08
2023-01-02T20:30:02.021Z,7.10
2023-01-02T20:33:03.665Z,7.07
2023-01-02T20:36:11.365Z,7.01
2023-01-02T20:39:15.646Z,7.02
2023-01-02T20:42:17.313Z,7.00
2023-01-02T20:45:19.121Z,6.99
2023-01-02T20:48:21.170Z,7.02
2023-01-02T20:51:22.865Z,7.07
2023-01-02T20:54:25.625Z,7.08
2023-01-02T20:57:27.314Z,6.99
2023-01-02T21:00:29.114Z,7.02
2023-01-02T21:03:30.741Z,7.00
2023-01-02T21:06:32.610Z,6.99
2023-01-02T21:09:34.665Z,7.01
2023-01-02T21:12:55.059Z,6.98
2023-01-02T21:15:58.108Z,6.96
2023-01-02T21:19:00.433Z,6.96
2023-01-02T21:22:02.192Z,6.92
2023-01-02T21:25:03.935Z,6.94
2023-01-02T21:28:05.943Z,6.94
2023-01-02T21:31:07.845Z,6.93
2023-01-02T21:34:10.025Z,6.91
2023-01-02T21:37:11.591Z,6.84
2023-01-02T21:40:13.227Z,6.77
2023-01-02T21:43:14.746Z,6.75
2023-01-02T21:46:16.354Z,6.74
2023-01-02T21:49:18.403Z,6.73
2023-01-02T21:52:20.630Z,6.71
2023-01-02T21:55:22.421Z,6.67
2023-01-02T21:58:23.925Z,6.66
2023-01-02T22:01:25.576Z,6.63
2023-01-02T22:04:27.370Z,6.54
2023-01-02T22:07:31.965Z,6.60
2023-01-02T22:10:34.177Z,6.59
2023-01-02T22:13:36.206Z,6.55
2023-01-02T22:16:37.893Z,6.47
2023-01-02T22:19:39.767Z,6.44
2023-01-02T22:22:41.522Z,6.41
2023-01-02T22:25:43.721Z,6.42
2023-01-02T22:28:45.632Z,6.36
2023-01-02T22:31:50.047Z,6.36
2023-01-02T22:34:52.004Z,6.30
2023-01-02T22:37:54.002Z,6.25
2023-01-02T22:40:56.083Z,6.19
2023-01-02T22:43:58.879Z,6.13
2023-01-02T22:47:00.707Z,6.14
2023-01-02T22:50:03.070Z,6.17
2023-01-02T22:53:11.967Z,6.21
2023-01-02T22:56:16.070Z,6.21
2023-01-02T22:59:18.025Z,6.15
2023-01-02T23:02:20.531Z,6.17
2023-01-02T23:05:22.132Z,6.13
2023-01-02T23:08:23.895Z,6.07
2023-01-02T23:11:25.626Z,6.04
2023-01-02T23:14:27.366Z,6.01
2023-01-02T23:17:47.756Z,6.01
2023-01-02T23:20:49.430Z,5.98
2023-01-02T23:23:51.717Z,5.97
2023-01-02T23:26:54.671Z,5.95
2023-01-02T23:29:56.327Z,5.90
2023-01-02T23:32:57.971Z,5.93
2023-01-02T23:35:59.544Z,5.85
2023-01-02T23:39:01.083Z,5.83
2023-01-02T23:42:02.696Z,5.85
2023-01-02T23:45:04.407Z,5.83
2023-01-02T23:48:06.051Z,5.89
2023-01-02T23:51:07.607Z,5.91
2023-01-02T23:54:10.535Z,5.91
2023-01-02T23:57:12.118Z,5.87
